Meath Environmental Platform

Observations for Trim Market St

Time AQI Temp °C Hum % Pres Pa CO μg/m³ H₂S μg/m³ NO μg/m³ NO₂ μg/m³ O₃ μg/m³ SO₂ μg/m³ PM1 μg/m³ PM2.5 μg/m³ PM10 μg/m³
Tuesday 25 August 2026
07:43 2 18.4 76 27,535 0.59 0 1.69 29.04 32.47 0 0.71 2.78 6.35
07:42 2 18.2 76 24,159 0.57 0 1.8 28.55 33.68 0 1.43 3.24 5.76
07:41 2 18.1 76 20,659 0.55 0 1.68 28.33 33.47 0 1.43 2.75 5.18
07:40 2 17.9 77 16,943 0.56 0 1.69 31 36.54 0 0.71 2.27 6.94
07:39 2 17.8 77 14,030 0.55 0 1.62 29.35 32.91 0 2.14 4.16 8.12
07:38 2 17.6 77 11,113 0.55 0 1.5 28.53 34.65 0 2.85 4.63 7.53
07:37 2 17.4 77 7,970 0.52 0 1.46 30.75 50.06 0 1.43 3.19 5.78
07:33 2 16.9 78 4,048 0.49 0 1.72 30.5 35.4 0 0.71 2.7 6.37
07:29 2 16.5 78 1,889 0.44 0 1.6 27.45 35.85 0 1.43 3.17 5.79
07:28 2 16.4 78 1,536 0.44 0 1.61 28.75 36.32 0 2.14 4.11 8.11
07:23 2 16 78 1,725 0.41 0 1.54 27.38 33.82 0 0.71 2.68 5.21
07:20 2 15.8 78 2,272 0.4 0 1.44 26.75 38.16 0 1.43 3.15 6.95
07:19 2 15.7 78 2,690 0.43 0 1.53 26.02 34.54 0 2.14 3.62 7.53
07:18 2 15.6 78 3,344 0.37 0 1.4 24.62 41.39 0 2.14 3.62 6.95
07:17 2 15.6 78 4,399 0.37 0 1.35 24.83 42.61 0 1.43 3.63 9.27
07:16 2 15.5 78 5,743 0.36 0 1.36 25.38 40.64 0 2.14 3.63 6.37
07:15 2 15.5 78 7,369 0.36 0 1.34 25.35 41.46 0 0.71 2.68 5.79
07:14 2 15.4 78 9,196 0.39 0 1.39 26.97 37.46 0 2.14 5.06 8.69
07:12 2 15.3 78 12,742 0.33 0 1.5 21.93 43.04 0 1.43 2.69 5.79
07:11 2 15.3 78 14,567 0.32 0 1.57 23.73 40.81 0 2.14 3.17 5.79